sensor_id;sensor_type;location;lat;lon;timestamp;pressure;altitude;pressure_sealevel;temperature;humidity
55460;BME280;41326;45.302;-122.946;2023-03-05T00:01:18;99437.05;;;17.85;49.32
55460;BME280;41326;45.302;-122.946;2023-03-05T00:03:47;99434.50;;;17.88;47.35
55460;BME280;41326;45.302;-122.946;2023-03-05T00:06:17;99428.33;;;17.67;47.40
55460;BME280;41326;45.302;-122.946;2023-03-05T00:08:48;99430.21;;;17.58;47.75
55460;BME280;41326;45.302;-122.946;2023-03-05T00:11:18;99432.17;;;17.54;47.83
55460;BME280;41326;45.302;-122.946;2023-03-05T00:13:50;99434.59;;;17.56;47.81
55460;BME280;41326;45.302;-122.946;2023-03-05T00:16:21;99429.37;;;17.66;47.68
55460;BME280;41326;45.302;-122.946;2023-03-05T00:18:49;99432.23;;;17.67;47.34
55460;BME280;41326;45.302;-122.946;2023-03-05T00:21:24;99434.47;;;17.59;47.41
55460;BME280;41326;45.302;-122.946;2023-03-05T00:23:51;99432.61;;;17.55;47.91
55460;BME280;41326;45.302;-122.946;2023-03-05T00:26:22;99434.89;;;17.58;48.04
55460;BME280;41326;45.302;-122.946;2023-03-05T00:28:51;99435.11;;;17.59;48.16
55460;BME280;41326;45.302;-122.946;2023-03-05T00:31:22;99434.09;;;17.59;48.37
55460;BME280;41326;45.302;-122.946;2023-03-05T00:33:56;99434.51;;;17.58;48.52
55460;BME280;41326;45.302;-122.946;2023-03-05T00:36:23;99436.06;;;17.57;48.91
55460;BME280;41326;45.302;-122.946;2023-03-05T00:38:53;99437.47;;;17.58;48.92
55460;BME280;41326;45.302;-122.946;2023-03-05T00:41:23;99440.27;;;17.56;49.09
55460;BME280;41326;45.302;-122.946;2023-03-05T00:43:53;99436.41;;;17.70;48.84
55460;BME280;41326;45.302;-122.946;2023-03-05T00:46:24;99442.54;;;17.85;48.64
55460;BME280;41326;45.302;-122.946;2023-03-05T00:48:54;99445.72;;;18.05;48.41
55460;BME280;41326;45.302;-122.946;2023-03-05T00:51:25;99452.26;;;18.26;47.78
55460;BME280;41326;45.302;-122.946;2023-03-05T00:53:55;99457.06;;;18.27;47.95
55460;BME280;41326;45.302;-122.946;2023-03-05T00:56:25;99464.06;;;18.20;47.91
55460;BME280;41326;45.302;-122.946;2023-03-05T00:58:56;99464.82;;;18.31;47.70
55460;BME280;41326;45.302;-122.946;2023-03-05T01:01:26;99472.00;;;18.40;47.58
55460;BME280;41326;45.302;-122.946;2023-03-05T01:03:56;99475.42;;;18.54;47.37
55460;BME280;41326;45.302;-122.946;2023-03-05T01:06:26;99481.72;;;18.72;46.99
55460;BME280;41326;45.302;-122.946;2023-03-05T01:08:56;99486.34;;;18.74;47.02
55460;BME280;41326;45.302;-122.946;2023-03-05T01:11:27;99488.36;;;18.67;47.21
55460;BME280;41326;45.302;-122.946;2023-03-05T01:13:58;99492.75;;;18.61;47.35
55460;BME280;41326;45.302;-122.946;2023-03-05T01:16:27;99494.22;;;18.73;47.28
55460;BME280;41326;45.302;-122.946;2023-03-05T01:18:58;99495.95;;;18.79;47.38
55460;BME280;41326;45.302;-122.946;2023-03-05T01:22:36;99499.34;;;18.77;47.53
55460;BME280;41326;45.302;-122.946;2023-03-05T01:25:07;99498.68;;;18.77;47.48
55460;BME280;41326;45.302;-122.946;2023-03-05T01:27:37;99501.67;;;18.72;47.63
55460;BME280;41326;45.302;-122.946;2023-03-05T01:30:08;99498.10;;;18.80;47.51
55460;BME280;41326;45.302;-122.946;2023-03-05T01:32:38;99502.50;;;18.92;47.39
55460;BME280;41326;45.302;-122.946;2023-03-05T01:35:10;99504.76;;;18.96;47.47
55460;BME280;41326;45.302;-122.946;2023-03-05T01:37:38;99503.58;;;18.94;47.46
55460;BME280;41326;45.302;-122.946;2023-03-05T01:40:09;99507.17;;;18.86;47.63
55460;BME280;41326;45.302;-122.946;2023-03-05T01:42:39;99507.16;;;18.91;47.64
55460;BME280;41326;45.302;-122.946;2023-03-05T01:45:14;99510.92;;;18.98;47.57
55460;BME280;41326;45.302;-122.946;2023-03-05T01:47:39;99519.88;;;19.00;47.57
55460;BME280;41326;45.302;-122.946;2023-03-05T01:50:11;99520.87;;;18.98;47.62
55460;BME280;41326;45.302;-122.946;2023-03-05T01:52:41;99522.37;;;18.95;47.68
55460;BME280;41326;45.302;-122.946;2023-03-05T01:55:13;99525.83;;;18.86;47.93
55460;BME280;41326;45.302;-122.946;2023-03-05T01:57:43;99529.70;;;18.81;48.04
55460;BME280;41326;45.302;-122.946;2023-03-05T02:00:15;99532.46;;;18.77;48.08
55460;BME280;41326;45.302;-122.946;2023-03-05T02:02:41;99537.15;;;18.82;48.07
55460;BME280;41326;45.302;-122.946;2023-03-05T02:05:15;99539.49;;;18.93;47.88
55460;BME280;41326;45.302;-122.946;2023-03-05T02:07:42;99539.38;;;18.97;47.95
55460;BME280;41326;45.302;-122.946;2023-03-05T02:10:17;99547.92;;;18.93;47.97
55460;BME280;41326;45.302;-122.946;2023-03-05T02:12:42;99549.78;;;18.86;48.16
55460;BME280;41326;45.302;-122.946;2023-03-05T02:15:14;99554.97;;;18.79;48.32
55460;BME280;41326;45.302;-122.946;2023-03-05T02:17:43;99559.12;;;18.76;48.33
55460;BME280;41326;45.302;-122.946;2023-03-05T02:20:16;99570.16;;;18.89;48.14
55460;BME280;41326;45.302;-122.946;2023-03-05T02:22:43;99577.74;;;19.06;47.86
55460;BME280;41326;45.302;-122.946;2023-03-05T02:25:19;99585.36;;;19.05;47.92
55460;BME280;41326;45.302;-122.946;2023-03-05T02:27:48;99590.64;;;18.98;47.99
55460;BME280;41326;45.302;-122.946;2023-03-05T02:32:45;99600.58;;;18.86;48.41
55460;BME280;41326;45.302;-122.946;2023-03-05T02:35:15;99605.29;;;18.79;49.11
55460;BME280;41326;45.302;-122.946;2023-03-05T02:37:45;99609.94;;;18.77;49.88
55460;BME280;41326;45.302;-122.946;2023-03-05T02:40:17;99610.58;;;18.73;50.93
55460;BME280;41326;45.302;-122.946;2023-03-05T02:42:46;99610.21;;;18.75;51.79
55460;BME280;41326;45.302;-122.946;2023-03-05T02:45:17;99618.35;;;18.70;52.04
55460;BME280;41326;45.302;-122.946;2023-03-05T02:47:47;99623.12;;;18.71;52.48
55460;BME280;41326;45.302;-122.946;2023-03-05T02:50:17;99628.81;;;18.67;52.98
55460;BME280;41326;45.302;-122.946;2023-03-05T02:52:48;99636.95;;;18.62;53.83
55460;BME280;41326;45.302;-122.946;2023-03-05T02:55:18;99644.06;;;18.63;54.45
55460;BME280;41326;45.302;-122.946;2023-03-05T02:57:48;99642.82;;;18.61;55.44
55460;BME280;41326;45.302;-122.946;2023-03-05T03:00:19;99643.60;;;18.69;55.66
55460;BME280;41326;45.302;-122.946;2023-03-05T03:02:49;99645.02;;;18.74;56.12
55460;BME280;41326;45.302;-122.946;2023-03-05T03:05:20;99645.05;;;18.82;57.07
55460;BME280;41326;45.302;-122.946;2023-03-05T03:07:50;99645.07;;;18.80;57.42
55460;BME280;41326;45.302;-122.946;2023-03-05T03:10:20;99653.41;;;18.80;57.15
55460;BME280;41326;45.302;-122.946;2023-03-05T03:12:51;99647.50;;;18.80;57.30
55460;BME280;41326;45.302;-122.946;2023-03-05T03:15:22;99653.75;;;18.80;56.93
55460;BME280;41326;45.302;-122.946;2023-03-05T03:17:52;99651.15;;;18.80;56.50
55460;BME280;41326;45.302;-122.946;2023-03-05T03:20:23;99653.36;;;18.77;55.92
55460;BME280;41326;45.302;-122.946;2023-03-05T03:22:53;99660.76;;;18.77;55.67
55460;BME280;41326;45.302;-122.946;2023-03-05T03:25:26;99668.33;;;18.78;55.57
55460;BME280;41326;45.302;-122.946;2023-03-05T03:27:53;99668.60;;;18.77;55.80
55460;BME280;41326;45.302;-122.946;2023-03-05T03:30:23;99673.77;;;18.78;55.74
55460;BME280;41326;45.302;-122.946;2023-03-05T03:32:56;99676.82;;;18.79;55.17
55460;BME280;41326;45.302;-122.946;2023-03-05T03:35:24;99678.29;;;18.74;55.25
55460;BME280;41326;45.302;-122.946;2023-03-05T03:37:55;99678.93;;;18.72;54.71
55460;BME280;41326;45.302;-122.946;2023-03-05T03:40:26;99679.36;;;18.74;54.31
55460;BME280;41326;45.302;-122.946;2023-03-05T03:42:56;99680.76;;;18.74;53.72
55460;BME280;41326;45.302;-122.946;2023-03-05T03:45:26;99678.26;;;18.76;53.11
55460;BME280;41326;45.302;-122.946;2023-03-05T03:47:56;99682.21;;;18.81;53.04
55460;BME280;41326;45.302;-122.946;2023-03-05T03:50:27;99683.91;;;18.83;53.25
55460;BME280;41326;45.302;-122.946;2023-03-05T03:52:57;99684.28;;;18.80;53.30
55460;BME280;41326;45.302;-122.946;2023-03-05T03:55:27;99684.60;;;18.76;53.48
55460;BME280;41326;45.302;-122.946;2023-03-05T03:57:57;99681.89;;;18.77;53.30
55460;BME280;41326;45.302;-122.946;2023-03-05T04:00:28;99686.13;;;18.77;53.02
55460;BME280;41326;45.302;-122.946;2023-03-05T04:02:58;99691.35;;;18.80;52.87
55460;BME280;41326;45.302;-122.946;2023-03-05T04:05:28;99693.95;;;18.80;52.87
55460;BME280;41326;45.302;-122.946;2023-03-05T04:07:58;99696.81;;;18.79;52.86
55460;BME280;41326;45.302;-122.946;2023-03-05T04:10:29;99701.30;;;18.71;52.98
55460;BME280;41326;45.302;-122.946;2023-03-05T04:12:59;99703.99;;;18.68;53.07
55460;BME280;41326;45.302;-122.946;2023-03-05T04:15:29;99703.56;;;18.62;53.17
55460;BME280;41326;45.302;-122.946;2023-03-05T04:18:00;99703.12;;;18.63;52.98
55460;BME280;41326;45.302;-122.946;2023-03-05T04:20:30;99704.89;;;18.61;52.90
55460;BME280;41326;45.302;-122.946;2023-03-05T04:23:00;99701.04;;;18.58;52.77
55460;BME280;41326;45.302;-122.946;2023-03-05T04:25:31;99698.81;;;18.51;53.03
55460;BME280;41326;45.302;-122.946;2023-03-05T04:28:01;99702.55;;;18.47;53.05
55460;BME280;41326;45.302;-122.946;2023-03-05T04:30:32;99705.52;;;18.55;52.20
55460;BME280;41326;45.302;-122.946;2023-03-05T04:33:02;99707.82;;;18.67;51.88
55460;BME280;41326;45.302;-122.946;2023-03-05T04:35:33;99710.13;;;18.85;51.48
55460;BME280;41326;45.302;-122.946;2023-03-05T04:38:03;99710.73;;;18.80;51.41
55460;BME280;41326;45.302;-122.946;2023-03-05T04:40:33;99717.26;;;18.78;51.43
55460;BME280;41326;45.302;-122.946;2023-03-05T04:43:04;99717.05;;;18.79;51.34
55460;BME280;41326;45.302;-122.946;2023-03-05T04:45:34;99722.20;;;18.76;51.49
55460;BME280;41326;45.302;-122.946;2023-03-05T04:48:04;99723.64;;;18.73;51.46
55460;BME280;41326;45.302;-122.946;2023-03-05T04:50:35;99724.40;;;18.66;51.70
55460;BME280;41326;45.302;-122.946;2023-03-05T04:53:05;99723.41;;;18.60;51.70
55460;BME280;41326;45.302;-122.946;2023-03-05T04:55:35;99728.18;;;18.52;52.01
55460;BME280;41326;45.302;-122.946;2023-03-05T04:58:06;99727.34;;;18.49;52.19
55460;BME280;41326;45.302;-122.946;2023-03-05T05:00:36;99726.34;;;18.46;52.04
55460;BME280;41326;45.302;-122.946;2023-03-05T05:03:07;99727.84;;;18.43;51.92
55460;BME280;41326;45.302;-122.946;2023-03-05T05:05:37;99731.47;;;18.39;52.06
55460;BME280;41326;45.302;-122.946;2023-03-05T05:08:08;99735.05;;;18.30;52.40
55460;BME280;41326;45.302;-122.946;2023-03-05T05:10:38;99739.23;;;18.33;52.27
55460;BME280;41326;45.302;-122.946;2023-03-05T05:13:08;99740.21;;;18.25;52.48
55460;BME280;41326;45.302;-122.946;2023-03-05T05:15:39;99746.99;;;18.21;52.60
55460;BME280;41326;45.302;-122.946;2023-03-05T05:18:09;99749.63;;;18.20;52.43
55460;BME280;41326;45.302;-122.946;2023-03-05T05:20:39;99750.17;;;18.19;52.35
55460;BME280;41326;45.302;-122.946;2023-03-05T05:23:10;99758.46;;;18.15;52.39
55460;BME280;41326;45.302;-122.946;2023-03-05T05:25:40;99764.27;;;18.17;52.28
55460;BME280;41326;45.302;-122.946;2023-03-05T05:28:10;99767.59;;;18.10;52.46
55460;BME280;41326;45.302;-122.946;2023-03-05T05:30:41;99772.16;;;18.10;52.47
55460;BME280;41326;45.302;-122.946;2023-03-05T05:33:11;99775.20;;;18.08;52.47
55460;BME280;41326;45.302;-122.946;2023-03-05T05:35:44;99776.75;;;18.04;52.56
55460;BME280;41326;45.302;-122.946;2023-03-05T05:38:12;99779.63;;;18.06;52.35
55460;BME280;41326;45.302;-122.946;2023-03-05T05:40:42;99779.87;;;18.06;52.18
55460;BME280;41326;45.302;-122.946;2023-03-05T05:43:13;99782.61;;;18.01;52.32
55460;BME280;41326;45.302;-122.946;2023-03-05T05:45:43;99784.37;;;18.02;52.25
55460;BME280;41326;45.302;-122.946;2023-03-05T05:48:13;99789.94;;;17.97;52.48
55460;BME280;41326;45.302;-122.946;2023-03-05T05:50:43;99790.73;;;17.94;52.46
55460;BME280;41326;45.302;-122.946;2023-03-05T05:53:14;99788.33;;;17.89;52.54
55460;BME280;41326;45.302;-122.946;2023-03-05T05:55:44;99790.10;;;17.87;52.57
55460;BME280;41326;45.302;-122.946;2023-03-05T05:58:14;99794.16;;;17.82;52.64
55460;BME280;41326;45.302;-122.946;2023-03-05T06:00:44;99797.94;;;17.86;52.35
55460;BME280;41326;45.302;-122.946;2023-03-05T06:03:15;99798.90;;;17.80;52.49
55460;BME280;41326;45.302;-122.946;2023-03-05T06:05:46;99802.31;;;17.79;52.57
55460;BME280;41326;45.302;-122.946;2023-03-05T06:08:15;99802.92;;;17.77;52.50
55460;BME280;41326;45.302;-122.946;2023-03-05T06:13:16;99801.22;;;17.74;52.60
55460;BME280;41326;45.302;-122.946;2023-03-05T06:18:17;99802.13;;;17.67;52.57
55460;BME280;41326;45.302;-122.946;2023-03-05T06:23:16;99811.10;;;17.63;52.49
55460;BME280;41326;45.302;-122.946;2023-03-05T06:25:47;99809.81;;;17.63;52.54
55460;BME280;41326;45.302;-122.946;2023-03-05T06:28:18;99811.28;;;17.61;52.55
55460;BME280;41326;45.302;-122.946;2023-03-05T06:30:48;99813.94;;;17.59;52.54
55460;BME280;41326;45.302;-122.946;2023-03-05T06:33:19;99815.82;;;17.57;52.63
55460;BME280;41326;45.302;-122.946;2023-03-05T06:35:49;99817.77;;;17.52;52.69
55460;BME280;41326;45.302;-122.946;2023-03-05T06:38:20;99817.18;;;17.53;52.48
55460;BME280;41326;45.302;-122.946;2023-03-05T06:40:50;99816.10;;;17.51;52.45
55460;BME280;41326;45.302;-122.946;2023-03-05T06:43:21;99819.40;;;17.48;52.49
55460;BME280;41326;45.302;-122.946;2023-03-05T06:48:21;99828.10;;;17.41;52.87
55460;BME280;41326;45.302;-122.946;2023-03-05T06:50:51;99827.90;;;17.37;52.93
55460;BME280;41326;45.302;-122.946;2023-03-05T06:53:22;99827.22;;;17.38;52.84
55460;BME280;41326;45.302;-122.946;2023-03-05T06:55:52;99836.69;;;17.36;53.01
55460;BME280;41326;45.302;-122.946;2023-03-05T06:58:23;99837.89;;;17.32;52.97
55460;BME280;41326;45.302;-122.946;2023-03-05T07:00:53;99837.68;;;17.31;52.92
55460;BME280;41326;45.302;-122.946;2023-03-05T07:03:24;99838.22;;;17.29;52.87
55460;BME280;41326;45.302;-122.946;2023-03-05T07:05:54;99841.06;;;17.26;53.01
55460;BME280;41326;45.302;-122.946;2023-03-05T07:08:24;99842.66;;;17.26;53.00
55460;BME280;41326;45.302;-122.946;2023-03-05T07:10:55;99843.78;;;17.24;53.06
55460;BME280;41326;45.302;-122.946;2023-03-05T07:13:26;99842.62;;;17.23;53.09
55460;BME280;41326;45.302;-122.946;2023-03-05T07:15:55;99847.35;;;17.20;53.16
55460;BME280;41326;45.302;-122.946;2023-03-05T07:18:27;99844.80;;;17.18;53.11
55460;BME280;41326;45.302;-122.946;2023-03-05T07:21:01;99848.77;;;17.20;52.91
55460;BME280;41326;45.302;-122.946;2023-03-05T07:23:27;99853.17;;;17.17;52.96
55460;BME280;41326;45.302;-122.946;2023-03-05T07:25:59;99854.21;;;17.15;53.07
55460;BME280;41326;45.302;-122.946;2023-03-05T07:28:28;99855.38;;;17.13;53.19
55460;BME280;41326;45.302;-122.946;2023-03-05T07:31:02;99849.99;;;17.12;53.16
55460;BME280;41326;45.302;-122.946;2023-03-05T07:33:29;99844.54;;;17.13;53.10
55460;BME280;41326;45.302;-122.946;2023-03-05T07:36:00;99842.40;;;17.11;53.21
55460;BME280;41326;45.302;-122.946;2023-03-05T07:38:30;99838.63;;;17.10;53.16
55460;BME280;41326;45.302;-122.946;2023-03-05T07:41:01;99841.30;;;17.06;53.14
55460;BME280;41326;45.302;-122.946;2023-03-05T07:43:30;99845.01;;;17.03;53.22
55460;BME280;41326;45.302;-122.946;2023-03-05T07:46:02;99844.17;;;17.02;53.27
55460;BME280;41326;45.302;-122.946;2023-03-05T07:48:31;99846.07;;;16.99;53.37
55460;BME280;41326;45.302;-122.946;2023-03-05T07:51:07;99839.61;;;17.00;53.33
55460;BME280;41326;45.302;-122.946;2023-03-05T07:53:32;99843.97;;;16.99;53.29
55460;BME280;41326;45.302;-122.946;2023-03-05T07:56:02;99846.30;;;16.98;53.33
55460;BME280;41326;45.302;-122.946;2023-03-05T07:58:33;99855.68;;;16.95;53.25
55460;BME280;41326;45.302;-122.946;2023-03-05T08:01:03;99865.02;;;16.98;53.08
55460;BME280;41326;45.302;-122.946;2023-03-05T08:03:33;99872.10;;;16.98;53.16
55460;BME280;41326;45.302;-122.946;2023-03-05T08:06:04;99870.65;;;16.95;53.21
55460;BME280;41326;45.302;-122.946;2023-03-05T08:08:34;99870.33;;;16.94;53.30
55460;BME280;41326;45.302;-122.946;2023-03-05T08:11:09;99864.70;;;16.92;53.30
55460;BME280;41326;45.302;-122.946;2023-03-05T08:13:35;99867.39;;;16.91;53.28
55460;BME280;41326;45.302;-122.946;2023-03-05T08:16:10;99870.94;;;16.88;53.34
55460;BME280;41326;45.302;-122.946;2023-03-05T08:18:35;99866.10;;;16.85;53.26
55460;BME280;41326;45.302;-122.946;2023-03-05T08:21:13;99866.27;;;16.83;53.22
55460;BME280;41326;45.302;-122.946;2023-03-05T08:23:36;99860.92;;;16.82;53.24
55460;BME280;41326;45.302;-122.946;2023-03-05T08:26:10;99859.27;;;16.81;53.26
55460;BME280;41326;45.302;-122.946;2023-03-05T08:28:36;99854.70;;;16.81;53.19
55460;BME280;41326;45.302;-122.946;2023-03-05T08:31:08;99851.92;;;16.77;53.29
55460;BME280;41326;45.302;-122.946;2023-03-05T08:33:37;99846.70;;;16.72;53.37
55460;BME280;41326;45.302;-122.946;2023-03-05T08:36:08;99847.86;;;16.72;53.28
55460;BME280;41326;45.302;-122.946;2023-03-05T08:38:38;99849.51;;;16.72;53.13
55460;BME280;41326;45.302;-122.946;2023-03-05T08:41:07;99851.09;;;16.70;53.05
55460;BME280;41326;45.302;-122.946;2023-03-05T08:43:37;99855.70;;;16.67;53.17
55460;BME280;41326;45.302;-122.946;2023-03-05T08:46:08;99852.79;;;16.67;53.11
55460;BME280;41326;45.302;-122.946;2023-03-05T08:48:38;99860.07;;;16.63;53.16
55460;BME280;41326;45.302;-122.946;2023-03-05T08:51:13;99866.61;;;16.63;53.21
55460;BME280;41326;45.302;-122.946;2023-03-05T08:53:39;99868.95;;;16.61;53.21
55460;BME280;41326;45.302;-122.946;2023-03-05T08:56:09;99869.61;;;16.57;53.31
55460;BME280;41326;45.302;-122.946;2023-03-05T08:58:39;99869.55;;;16.55;53.21
55460;BME280;41326;45.302;-122.946;2023-03-05T09:01:09;99867.08;;;16.58;53.01
55460;BME280;41326;45.302;-122.946;2023-03-05T09:03:39;99863.42;;;16.53;53.16
55460;BME280;41326;45.302;-122.946;2023-03-05T09:06:11;99863.21;;;16.53;53.11
55460;BME280;41326;45.302;-122.946;2023-03-05T09:08:41;99865.90;;;16.50;53.14
55460;BME280;41326;45.302;-122.946;2023-03-05T09:11:11;99866.55;;;16.45;53.22
55460;BME280;41326;45.302;-122.946;2023-03-05T09:13:41;99870.37;;;16.43;53.21
55460;BME280;41326;45.302;-122.946;2023-03-05T09:16:13;99871.67;;;16.39;53.35
55460;BME280;41326;45.302;-122.946;2023-03-05T09:18:41;99865.52;;;16.41;53.18
55460;BME280;41326;45.302;-122.946;2023-03-05T09:21:13;99857.23;;;16.43;53.01
55460;BME280;41326;45.302;-122.946;2023-03-05T09:23:46;99852.46;;;16.37;53.22
55460;BME280;41326;45.302;-122.946;2023-03-05T09:26:14;99850.97;;;16.37;53.17
55460;BME280;41326;45.302;-122.946;2023-03-05T09:28:42;99857.03;;;16.33;53.24
55460;BME280;41326;45.302;-122.946;2023-03-05T09:31:13;99852.61;;;16.32;53.25
55460;BME280;41326;45.302;-122.946;2023-03-05T09:33:43;99849.29;;;16.31;53.23
55460;BME280;41326;45.302;-122.946;2023-03-05T09:36:18;99850.08;;;16.28;53.28
55460;BME280;41326;45.302;-122.946;2023-03-05T09:38:43;99843.12;;;16.25;53.23
55460;BME280;41326;45.302;-122.946;2023-03-05T09:41:23;99839.86;;;16.23;53.25
55460;BME280;41326;45.302;-122.946;2023-03-05T09:43:52;99837.48;;;16.21;53.30
55460;BME280;41326;45.302;-122.946;2023-03-05T09:46:25;99835.84;;;16.21;53.24
55460;BME280;41326;45.302;-122.946;2023-03-05T09:48:51;99834.16;;;16.20;53.25
55460;BME280;41326;45.302;-122.946;2023-03-05T09:51:20;99827.83;;;16.17;53.31
55460;BME280;41326;45.302;-122.946;2023-03-05T09:53:49;99826.72;;;16.14;53.27
55460;BME280;41326;45.302;-122.946;2023-03-05T09:56:17;99819.56;;;16.17;53.23
55460;BME280;41326;45.302;-122.946;2023-03-05T09:58:47;99812.08;;;16.14;53.16
55460;BME280;41326;45.302;-122.946;2023-03-05T10:01:19;99804.83;;;16.12;53.10
55460;BME280;41326;45.302;-122.946;2023-03-05T10:03:54;99800.07;;;16.08;53.23
55460;BME280;41326;45.302;-122.946;2023-03-05T10:06:21;99798.80;;;16.05;53.27
55460;BME280;41326;45.302;-122.946;2023-03-05T10:08:52;99801.35;;;16.02;53.36
55460;BME280;41326;45.302;-122.946;2023-03-05T10:11:21;99800.36;;;16.02;53.32
55460;BME280;41326;45.302;-122.946;2023-03-05T10:13:47;99795.73;;;16.00;53.33
55460;BME280;41326;45.302;-122.946;2023-03-05T10:18:52;99799.49;;;15.97;53.21
55460;BME280;41326;45.302;-122.946;2023-03-05T10:21:19;99801.66;;;15.98;53.10
55460;BME280;41326;45.302;-122.946;2023-03-05T10:24:01;99804.95;;;15.93;53.32
55460;BME280;41326;45.302;-122.946;2023-03-05T10:26:28;99807.24;;;15.93;53.30
55460;BME280;41326;45.302;-122.946;2023-03-05T10:28:56;99808.30;;;15.90;53.30
55460;BME280;41326;45.302;-122.946;2023-03-05T10:31:32;99804.27;;;15.85;53.43
55460;BME280;41326;45.302;-122.946;2023-03-05T10:34:00;99801.89;;;15.89;53.27
55460;BME280;41326;45.302;-122.946;2023-03-05T10:36:27;99801.43;;;15.85;53.36
55460;BME280;41326;45.302;-122.946;2023-03-05T10:39:04;99801.91;;;15.83;53.32
55460;BME280;41326;45.302;-122.946;2023-03-05T10:41:27;99799.43;;;15.81;53.33
55460;BME280;41326;45.302;-122.946;2023-03-05T10:43:57;99798.97;;;15.82;53.23
55460;BME280;41326;45.302;-122.946;2023-03-05T10:46:24;99797.24;;;15.79;53.33
55460;BME280;41326;45.302;-122.946;2023-03-05T10:48:56;99796.52;;;15.76;53.37
55460;BME280;41326;45.302;-122.946;2023-03-05T10:51:27;99796.89;;;15.75;53.36
55460;BME280;41326;45.302;-122.946;2023-03-05T10:53:57;99792.76;;;15.72;53.42
55460;BME280;41326;45.302;-122.946;2023-03-05T10:56:25;99792.14;;;15.73;53.29
55460;BME280;41326;45.302;-122.946;2023-03-05T10:58:53;99794.46;;;15.72;53.26
55460;BME280;41326;45.302;-122.946;2023-03-05T11:01:27;99791.06;;;15.69;53.35
55460;BME280;41326;45.302;-122.946;2023-03-05T11:03:57;99789.05;;;15.68;53.36
55460;BME280;41326;45.302;-122.946;2023-03-05T11:06:31;99789.94;;;15.68;53.37
55460;BME280;41326;45.302;-122.946;2023-03-05T11:08:54;99789.83;;;15.67;53.48
55460;BME280;41326;45.302;-122.946;2023-03-05T11:11:25;99790.14;;;15.64;53.59
55460;BME280;41326;45.302;-122.946;2023-03-05T11:13:59;99783.42;;;15.63;53.60
55460;BME280;41326;45.302;-122.946;2023-03-05T11:16:27;99780.44;;;15.60;53.63
55460;BME280;41326;45.302;-122.946;2023-03-05T11:21:26;99777.17;;;15.57;53.50
55460;BME280;41326;45.302;-122.946;2023-03-05T11:24:05;99774.90;;;15.58;53.50
55460;BME280;41326;45.302;-122.946;2023-03-05T11:26:27;99774.51;;;15.52;53.58
55460;BME280;41326;45.302;-122.946;2023-03-05T11:29:00;99774.74;;;15.51;53.63
55460;BME280;41326;45.302;-122.946;2023-03-05T11:31:29;99773.78;;;15.50;53.57
55460;BME280;41326;45.302;-122.946;2023-03-05T11:34:00;99768.12;;;15.50;53.55
55460;BME280;41326;45.302;-122.946;2023-03-05T11:36:30;99770.29;;;15.47;53.64
55460;BME280;41326;45.302;-122.946;2023-03-05T11:39:07;99769.09;;;15.49;53.46
55460;BME280;41326;45.302;-122.946;2023-03-05T11:42:36;99766.22;;;15.41;53.64
55460;BME280;41326;45.302;-122.946;2023-03-05T11:45:06;99763.83;;;15.41;53.68
55460;BME280;41326;45.302;-122.946;2023-03-05T11:47:42;99755.67;;;15.37;53.77
55460;BME280;41326;45.302;-122.946;2023-03-05T11:50:11;99751.39;;;15.37;53.71
55460;BME280;41326;45.302;-122.946;2023-03-05T11:52:41;99746.30;;;15.35;53.75
55460;BME280;41326;45.302;-122.946;2023-03-05T11:55:09;99744.19;;;15.34;53.75
55460;BME280;41326;45.302;-122.946;2023-03-05T11:57:42;99741.89;;;15.29;53.75
55460;BME280;41326;45.302;-122.946;2023-03-05T12:00:12;99739.95;;;15.26;53.74
55460;BME280;41326;45.302;-122.946;2023-03-05T12:02:47;99737.35;;;15.28;53.71
55460;BME280;41326;45.302;-122.946;2023-03-05T12:05:19;99734.36;;;15.26;53.66
55460;BME280;41326;45.302;-122.946;2023-03-05T12:07:51;99734.48;;;15.24;53.70
55460;BME280;41326;45.302;-122.946;2023-03-05T12:10:21;99734.80;;;15.23;53.72
55460;BME280;41326;45.302;-122.946;2023-03-05T12:12:53;99739.37;;;15.23;53.63
55460;BME280;41326;45.302;-122.946;2023-03-05T12:15:34;99743.99;;;15.19;53.69
55460;BME280;41326;45.302;-122.946;2023-03-05T12:17:55;99741.74;;;15.17;53.65
55460;BME280;41326;45.302;-122.946;2023-03-05T12:20:24;99742.71;;;15.15;53.78
55460;BME280;41326;45.302;-122.946;2023-03-05T12:22:50;99744.24;;;15.13;54.02
55460;BME280;41326;45.302;-122.946;2023-03-05T12:25:29;99747.16;;;15.13;54.19
55460;BME280;41326;45.302;-122.946;2023-03-05T12:27:50;99752.69;;;15.13;54.18
55460;BME280;41326;45.302;-122.946;2023-03-05T12:32:55;99749.37;;;15.09;54.15
55460;BME280;41326;45.302;-122.946;2023-03-05T12:35:26;99749.06;;;15.06;54.29
55460;BME280;41326;45.302;-122.946;2023-03-05T12:37:58;99746.87;;;15.05;54.22
55460;BME280;41326;45.302;-122.946;2023-03-05T12:40:27;99745.75;;;15.04;54.12
55460;BME280;41326;45.302;-122.946;2023-03-05T12:42:57;99747.96;;;15.03;54.21
55460;BME280;41326;45.302;-122.946;2023-03-05T12:45:27;99748.93;;;15.00;54.30
55460;BME280;41326;45.302;-122.946;2023-03-05T12:52:53;99748.41;;;15.01;54.12
55460;BME280;41326;45.302;-122.946;2023-03-05T12:55:27;99748.03;;;14.95;54.24
55460;BME280;41326;45.302;-122.946;2023-03-05T12:57:59;99744.84;;;14.96;54.14
55460;BME280;41326;45.302;-122.946;2023-03-05T13:00:30;99746.95;;;14.95;53.98
55460;BME280;41326;45.302;-122.946;2023-03-05T13:02:57;99747.06;;;14.95;53.97
55460;BME280;41326;45.302;-122.946;2023-03-05T13:05:29;99745.24;;;14.96;53.87
55460;BME280;41326;45.302;-122.946;2023-03-05T13:10:27;99749.10;;;14.91;53.91
55460;BME280;41326;45.302;-122.946;2023-03-05T13:12:58;99751.13;;;14.93;53.78
55460;BME280;41326;45.302;-122.946;2023-03-05T13:15:29;99753.66;;;14.90;53.83